sensor_id;sensor_type;location;lat;lon;timestamp;P1;durP1;ratioP1;P2;durP2;ratioP2
76459;SDS011;65299;46.084;18.762;2023-02-28T00:00:18;10.13;;;4.82;;
76459;SDS011;65299;46.084;18.762;2023-02-28T00:03:19;7.90;;;4.07;;
76459;SDS011;65299;46.084;18.762;2023-02-28T00:06:20;11.95;;;5.05;;
76459;SDS011;65299;46.084;18.762;2023-02-28T00:09:20;14.10;;;4.80;;
76459;SDS011;65299;46.084;18.762;2023-02-28T00:12:21;11.97;;;4.20;;
76459;SDS011;65299;46.084;18.762;2023-02-28T00:15:21;11.18;;;4.88;;
76459;SDS011;65299;46.084;18.762;2023-02-28T00:18:23;11.35;;;4.90;;
76459;SDS011;65299;46.084;18.762;2023-02-28T00:21:23;9.33;;;4.67;;
76459;SDS011;65299;46.084;18.762;2023-02-28T00:24:24;12.23;;;5.37;;
76459;SDS011;65299;46.084;18.762;2023-02-28T00:27:24;11.75;;;5.97;;
76459;SDS011;65299;46.084;18.762;2023-02-28T00:30:24;12.23;;;4.83;;
76459;SDS011;65299;46.084;18.762;2023-02-28T00:33:25;9.10;;;4.50;;
76459;SDS011;65299;46.084;18.762;2023-02-28T00:36:26;9.68;;;4.60;;
76459;SDS011;65299;46.084;18.762;2023-02-28T00:39:26;11.10;;;5.10;;
76459;SDS011;65299;46.084;18.762;2023-02-28T00:42:27;11.07;;;4.53;;
76459;SDS011;65299;46.084;18.762;2023-02-28T00:45:27;11.77;;;5.57;;
76459;SDS011;65299;46.084;18.762;2023-02-28T00:48:28;9.00;;;4.43;;
76459;SDS011;65299;46.084;18.762;2023-02-28T00:51:28;11.27;;;5.53;;
76459;SDS011;65299;46.084;18.762;2023-02-28T00:54:28;10.83;;;4.30;;
76459;SDS011;65299;46.084;18.762;2023-02-28T00:57:29;9.93;;;4.97;;
76459;SDS011;65299;46.084;18.762;2023-02-28T01:00:29;12.50;;;5.80;;
76459;SDS011;65299;46.084;18.762;2023-02-28T01:03:30;12.93;;;5.20;;
76459;SDS011;65299;46.084;18.762;2023-02-28T01:06:30;13.73;;;6.23;;
76459;SDS011;65299;46.084;18.762;2023-02-28T01:09:31;12.80;;;5.85;;
76459;SDS011;65299;46.084;18.762;2023-02-28T01:12:32;13.80;;;6.00;;
76459;SDS011;65299;46.084;18.762;2023-02-28T01:15:32;13.23;;;7.00;;
76459;SDS011;65299;46.084;18.762;2023-02-28T01:18:33;14.18;;;6.03;;
76459;SDS011;65299;46.084;18.762;2023-02-28T01:21:33;12.07;;;5.30;;
76459;SDS011;65299;46.084;18.762;2023-02-28T01:24:35;13.82;;;5.85;;
76459;SDS011;65299;46.084;18.762;2023-02-28T01:27:37;12.80;;;5.63;;
76459;SDS011;65299;46.084;18.762;2023-02-28T01:30:39;12.10;;;6.28;;
76459;SDS011;65299;46.084;18.762;2023-02-28T01:33:39;15.27;;;6.70;;
76459;SDS011;65299;46.084;18.762;2023-02-28T01:36:40;14.03;;;6.40;;
76459;SDS011;65299;46.084;18.762;2023-02-28T01:39:40;9.83;;;3.80;;
76459;SDS011;65299;46.084;18.762;2023-02-28T01:42:41;13.00;;;5.68;;
76459;SDS011;65299;46.084;18.762;2023-02-28T01:45:41;13.73;;;5.67;;
76459;SDS011;65299;46.084;18.762;2023-02-28T01:49:23;15.60;;;5.80;;
76459;SDS011;65299;46.084;18.762;2023-02-28T01:52:08;12.43;;;5.28;;
76459;SDS011;65299;46.084;18.762;2023-02-28T01:55:15;14.02;;;6.03;;
76459;SDS011;65299;46.084;18.762;2023-02-28T01:58:18;14.00;;;6.40;;
76459;SDS011;65299;46.084;18.762;2023-02-28T02:01:20;14.13;;;6.40;;
76459;SDS011;65299;46.084;18.762;2023-02-28T02:04:23;13.68;;;5.85;;
76459;SDS011;65299;46.084;18.762;2023-02-28T02:07:29;16.98;;;6.80;;
76459;SDS011;65299;46.084;18.762;2023-02-28T02:10:42;15.85;;;6.10;;
76459;SDS011;65299;46.084;18.762;2023-02-28T02:17:14;13.07;;;6.03;;
76459;SDS011;65299;46.084;18.762;2023-02-28T02:21:01;12.05;;;5.53;;
76459;SDS011;65299;46.084;18.762;2023-02-28T02:24:21;15.88;;;6.13;;
76459;SDS011;65299;46.084;18.762;2023-02-28T02:31:12;12.93;;;5.60;;
76459;SDS011;65299;46.084;18.762;2023-02-28T02:34:31;11.57;;;5.07;;
76459;SDS011;65299;46.084;18.762;2023-02-28T02:40:42;13.85;;;5.82;;
76459;SDS011;65299;46.084;18.762;2023-02-28T02:43:58;10.55;;;4.90;;
76459;SDS011;65299;46.084;18.762;2023-02-28T02:47:08;11.37;;;5.93;;
76459;SDS011;65299;46.084;18.762;2023-02-28T02:50:14;11.30;;;5.05;;
76459;SDS011;65299;46.084;18.762;2023-02-28T02:53:24;13.95;;;5.00;;
76459;SDS011;65299;46.084;18.762;2023-02-28T02:56:41;10.05;;;4.70;;
76459;SDS011;65299;46.084;18.762;2023-02-28T02:59:45;13.88;;;5.45;;
76459;SDS011;65299;46.084;18.762;2023-02-28T03:02:46;10.30;;;5.07;;
76459;SDS011;65299;46.084;18.762;2023-02-28T03:05:50;12.38;;;5.60;;
76459;SDS011;65299;46.084;18.762;2023-02-28T03:08:51;10.30;;;5.17;;
76459;SDS011;65299;46.084;18.762;2023-02-28T03:11:52;15.70;;;5.17;;
76459;SDS011;65299;46.084;18.762;2023-02-28T03:18:10;11.02;;;4.80;;
76459;SDS011;65299;46.084;18.762;2023-02-28T03:24:45;13.00;;;5.50;;
76459;SDS011;65299;46.084;18.762;2023-02-28T03:27:54;20.55;;;7.80;;
76459;SDS011;65299;46.084;18.762;2023-02-28T03:31:06;14.77;;;6.38;;
76459;SDS011;65299;46.084;18.762;2023-02-28T03:34:34;10.63;;;4.25;;
76459;SDS011;65299;46.084;18.762;2023-02-28T03:37:39;8.33;;;4.30;;
76459;SDS011;65299;46.084;18.762;2023-02-28T03:40:47;9.57;;;4.53;;
76459;SDS011;65299;46.084;18.762;2023-02-28T03:44:34;10.90;;;4.45;;
76459;SDS011;65299;46.084;18.762;2023-02-28T03:50:54;12.32;;;3.78;;
76459;SDS011;65299;46.084;18.762;2023-02-28T03:53:58;7.63;;;3.77;;
76459;SDS011;65299;46.084;18.762;2023-02-28T03:57:12;10.32;;;3.80;;
76459;SDS011;65299;46.084;18.762;2023-02-28T04:00:28;11.38;;;4.43;;
76459;SDS011;65299;46.084;18.762;2023-02-28T04:03:39;9.32;;;4.07;;
76459;SDS011;65299;46.084;18.762;2023-02-28T04:06:40;10.03;;;4.27;;
76459;SDS011;65299;46.084;18.762;2023-02-28T04:09:41;8.60;;;4.20;;
76459;SDS011;65299;46.084;18.762;2023-02-28T04:12:41;7.93;;;3.33;;
76459;SDS011;65299;46.084;18.762;2023-02-28T04:15:41;8.50;;;3.57;;
76459;SDS011;65299;46.084;18.762;2023-02-28T04:18:42;6.93;;;3.17;;
76459;SDS011;65299;46.084;18.762;2023-02-28T04:21:46;9.50;;;3.85;;
76459;SDS011;65299;46.084;18.762;2023-02-28T04:24:48;4.90;;;2.05;;
76459;SDS011;65299;46.084;18.762;2023-02-28T04:27:49;9.50;;;4.00;;
76459;SDS011;65299;46.084;18.762;2023-02-28T04:30:56;9.37;;;3.70;;
76459;SDS011;65299;46.084;18.762;2023-02-28T04:33:58;12.45;;;4.30;;
76459;SDS011;65299;46.084;18.762;2023-02-28T04:36:59;29.10;;;10.60;;
76459;SDS011;65299;46.084;18.762;2023-02-28T04:40:00;15.43;;;6.13;;
76459;SDS011;65299;46.084;18.762;2023-02-28T04:43:01;15.73;;;7.18;;
76459;SDS011;65299;46.084;18.762;2023-02-28T04:46:04;14.87;;;7.53;;
76459;SDS011;65299;46.084;18.762;2023-02-28T04:49:05;7.88;;;4.22;;
76459;SDS011;65299;46.084;18.762;2023-02-28T04:52:06;8.85;;;4.40;;
76459;SDS011;65299;46.084;18.762;2023-02-28T04:55:07;9.93;;;3.93;;
76459;SDS011;65299;46.084;18.762;2023-02-28T04:58:08;8.05;;;3.95;;
76459;SDS011;65299;46.084;18.762;2023-02-28T05:01:22;8.13;;;3.40;;
76459;SDS011;65299;46.084;18.762;2023-02-28T05:04:24;13.55;;;6.70;;
76459;SDS011;65299;46.084;18.762;2023-02-28T05:07:25;13.27;;;6.80;;
76459;SDS011;65299;46.084;18.762;2023-02-28T05:10:26;11.98;;;5.97;;
76459;SDS011;65299;46.084;18.762;2023-02-28T05:13:27;12.27;;;4.63;;
76459;SDS011;65299;46.084;18.762;2023-02-28T05:16:28;11.60;;;6.07;;
76459;SDS011;65299;46.084;18.762;2023-02-28T05:19:28;12.30;;;5.63;;
76459;SDS011;65299;46.084;18.762;2023-02-28T05:22:29;10.30;;;5.17;;
76459;SDS011;65299;46.084;18.762;2023-02-28T05:25:29;11.23;;;4.70;;
76459;SDS011;65299;46.084;18.762;2023-02-28T05:28:29;17.33;;;8.77;;
76459;SDS011;65299;46.084;18.762;2023-02-28T05:31:30;19.30;;;8.90;;
76459;SDS011;65299;46.084;18.762;2023-02-28T05:34:30;13.57;;;6.10;;
76459;SDS011;65299;46.084;18.762;2023-02-28T05:37:31;9.03;;;3.60;;
76459;SDS011;65299;46.084;18.762;2023-02-28T05:40:32;9.88;;;4.07;;
76459;SDS011;65299;46.084;18.762;2023-02-28T05:43:32;9.23;;;4.10;;
76459;SDS011;65299;46.084;18.762;2023-02-28T05:46:32;10.53;;;3.97;;
76459;SDS011;65299;46.084;18.762;2023-02-28T05:49:33;9.73;;;4.35;;
76459;SDS011;65299;46.084;18.762;2023-02-28T05:52:33;14.07;;;5.80;;
76459;SDS011;65299;46.084;18.762;2023-02-28T05:55:34;13.77;;;6.15;;
76459;SDS011;65299;46.084;18.762;2023-02-28T05:58:35;27.87;;;9.47;;
76459;SDS011;65299;46.084;18.762;2023-02-28T06:01:37;26.48;;;7.28;;
76459;SDS011;65299;46.084;18.762;2023-02-28T06:04:38;27.85;;;9.93;;
76459;SDS011;65299;46.084;18.762;2023-02-28T06:07:40;21.17;;;6.63;;
76459;SDS011;65299;46.084;18.762;2023-02-28T06:10:41;14.35;;;5.57;;
76459;SDS011;65299;46.084;18.762;2023-02-28T06:13:41;16.40;;;6.47;;
76459;SDS011;65299;46.084;18.762;2023-02-28T06:16:42;13.87;;;5.70;;
76459;SDS011;65299;46.084;18.762;2023-02-28T06:19:43;9.15;;;4.40;;
76459;SDS011;65299;46.084;18.762;2023-02-28T06:22:43;10.07;;;4.07;;
76459;SDS011;65299;46.084;18.762;2023-02-28T06:25:45;14.93;;;5.85;;
76459;SDS011;65299;46.084;18.762;2023-02-28T06:28:46;13.70;;;4.68;;
76459;SDS011;65299;46.084;18.762;2023-02-28T06:31:47;25.10;;;8.63;;
76459;SDS011;65299;46.084;18.762;2023-02-28T06:34:48;19.10;;;6.80;;
76459;SDS011;65299;46.084;18.762;2023-02-28T06:37:48;15.52;;;6.78;;
76459;SDS011;65299;46.084;18.762;2023-02-28T06:40:55;15.13;;;6.70;;
76459;SDS011;65299;46.084;18.762;2023-02-28T06:43:57;15.15;;;7.47;;
76459;SDS011;65299;46.084;18.762;2023-02-28T06:46:57;11.93;;;5.30;;
76459;SDS011;65299;46.084;18.762;2023-02-28T06:49:57;17.87;;;6.67;;
76459;SDS011;65299;46.084;18.762;2023-02-28T06:52:58;18.57;;;7.67;;
76459;SDS011;65299;46.084;18.762;2023-02-28T06:55:58;10.90;;;5.50;;
76459;SDS011;65299;46.084;18.762;2023-02-28T06:58:59;14.57;;;6.22;;
76459;SDS011;65299;46.084;18.762;2023-02-28T07:02:00;17.37;;;7.77;;
76459;SDS011;65299;46.084;18.762;2023-02-28T07:05:02;16.13;;;7.75;;
76459;SDS011;65299;46.084;18.762;2023-02-28T07:08:02;12.50;;;6.30;;
76459;SDS011;65299;46.084;18.762;2023-02-28T07:11:03;23.00;;;9.48;;
76459;SDS011;65299;46.084;18.762;2023-02-28T07:14:04;25.02;;;10.63;;
76459;SDS011;65299;46.084;18.762;2023-02-28T07:17:06;14.77;;;6.73;;
76459;SDS011;65299;46.084;18.762;2023-02-28T07:20:07;15.43;;;6.65;;
76459;SDS011;65299;46.084;18.762;2023-02-28T07:23:08;21.95;;;9.40;;
76459;SDS011;65299;46.084;18.762;2023-02-28T07:26:11;19.00;;;7.43;;
76459;SDS011;65299;46.084;18.762;2023-02-28T07:29:14;18.13;;;9.13;;
76459;SDS011;65299;46.084;18.762;2023-02-28T07:32:15;12.83;;;6.03;;
76459;SDS011;65299;46.084;18.762;2023-02-28T07:35:15;14.20;;;6.10;;
76459;SDS011;65299;46.084;18.762;2023-02-28T07:38:16;14.23;;;6.77;;
76459;SDS011;65299;46.084;18.762;2023-02-28T07:41:18;15.77;;;6.13;;
76459;SDS011;65299;46.084;18.762;2023-02-28T07:44:19;12.95;;;5.95;;
76459;SDS011;65299;46.084;18.762;2023-02-28T07:47:20;17.42;;;7.13;;
76459;SDS011;65299;46.084;18.762;2023-02-28T07:50:21;14.53;;;5.77;;
76459;SDS011;65299;46.084;18.762;2023-02-28T07:53:22;15.98;;;5.78;;
76459;SDS011;65299;46.084;18.762;2023-02-28T07:56:22;13.87;;;7.03;;
76459;SDS011;65299;46.084;18.762;2023-02-28T07:59:23;14.35;;;6.45;;
76459;SDS011;65299;46.084;18.762;2023-02-28T08:02:24;14.83;;;6.40;;
76459;SDS011;65299;46.084;18.762;2023-02-28T08:05:24;16.70;;;7.38;;
76459;SDS011;65299;46.084;18.762;2023-02-28T08:08:25;10.87;;;5.60;;
76459;SDS011;65299;46.084;18.762;2023-02-28T08:11:31;15.38;;;7.22;;
76459;SDS011;65299;46.084;18.762;2023-02-28T08:14:31;15.03;;;5.93;;
76459;SDS011;65299;46.084;18.762;2023-02-28T08:17:31;12.55;;;6.03;;
76459;SDS011;65299;46.084;18.762;2023-02-28T08:20:32;10.73;;;4.63;;
76459;SDS011;65299;46.084;18.762;2023-02-28T08:23:32;13.93;;;5.80;;
76459;SDS011;65299;46.084;18.762;2023-02-28T08:26:33;14.80;;;6.38;;
76459;SDS011;65299;46.084;18.762;2023-02-28T08:29:34;15.90;;;6.93;;
76459;SDS011;65299;46.084;18.762;2023-02-28T08:32:37;16.30;;;5.50;;
76459;SDS011;65299;46.084;18.762;2023-02-28T08:35:37;15.60;;;5.50;;
76459;SDS011;65299;46.084;18.762;2023-02-28T08:38:38;19.87;;;8.70;;
76459;SDS011;65299;46.084;18.762;2023-02-28T08:41:38;13.18;;;5.60;;
76459;SDS011;65299;46.084;18.762;2023-02-28T08:44:39;14.50;;;6.90;;
76459;SDS011;65299;46.084;18.762;2023-02-28T08:47:40;12.68;;;4.65;;
76459;SDS011;65299;46.084;18.762;2023-02-28T08:50:41;13.18;;;5.90;;
76459;SDS011;65299;46.084;18.762;2023-02-28T08:53:41;13.40;;;5.43;;
76459;SDS011;65299;46.084;18.762;2023-02-28T08:56:42;11.20;;;5.97;;
76459;SDS011;65299;46.084;18.762;2023-02-28T08:59:42;13.50;;;6.13;;
76459;SDS011;65299;46.084;18.762;2023-02-28T09:02:42;15.63;;;6.57;;
76459;SDS011;65299;46.084;18.762;2023-02-28T09:05:56;14.57;;;6.50;;
76459;SDS011;65299;46.084;18.762;2023-02-28T09:08:58;9.13;;;4.75;;
76459;SDS011;65299;46.084;18.762;2023-02-28T09:11:59;13.20;;;5.90;;
76459;SDS011;65299;46.084;18.762;2023-02-28T09:15:00;14.70;;;6.93;;
76459;SDS011;65299;46.084;18.762;2023-02-28T09:18:00;14.00;;;6.40;;
76459;SDS011;65299;46.084;18.762;2023-02-28T09:21:02;12.17;;;5.53;;
76459;SDS011;65299;46.084;18.762;2023-02-28T09:24:03;12.07;;;5.65;;
76459;SDS011;65299;46.084;18.762;2023-02-28T09:27:04;15.70;;;6.70;;
76459;SDS011;65299;46.084;18.762;2023-02-28T09:30:05;16.43;;;6.33;;
76459;SDS011;65299;46.084;18.762;2023-02-28T09:33:06;13.70;;;5.90;;
76459;SDS011;65299;46.084;18.762;2023-02-28T09:36:07;15.15;;;6.70;;
76459;SDS011;65299;46.084;18.762;2023-02-28T09:39:08;13.00;;;6.20;;
76459;SDS011;65299;46.084;18.762;2023-02-28T09:42:21;13.02;;;5.68;;
76459;SDS011;65299;46.084;18.762;2023-02-28T09:45:30;12.20;;;5.40;;
76459;SDS011;65299;46.084;18.762;2023-02-28T09:48:35;13.38;;;6.70;;
76459;SDS011;65299;46.084;18.762;2023-02-28T09:54:43;11.50;;;5.27;;
76459;SDS011;65299;46.084;18.762;2023-02-28T09:57:44;20.90;;;10.00;;
76459;SDS011;65299;46.084;18.762;2023-02-28T10:00:55;15.10;;;6.83;;
76459;SDS011;65299;46.084;18.762;2023-02-28T10:04:03;15.48;;;6.07;;
76459;SDS011;65299;46.084;18.762;2023-02-28T10:07:51;11.15;;;5.70;;
76459;SDS011;65299;46.084;18.762;2023-02-28T10:10:45;16.00;;;7.07;;
76459;SDS011;65299;46.084;18.762;2023-02-28T10:13:54;13.35;;;5.72;;
76459;SDS011;65299;46.084;18.762;2023-02-28T10:17:02;11.87;;;5.63;;
76459;SDS011;65299;46.084;18.762;2023-02-28T10:20:22;13.52;;;4.75;;
76459;SDS011;65299;46.084;18.762;2023-02-28T10:23:34;12.95;;;6.13;;
76459;SDS011;65299;46.084;18.762;2023-02-28T10:26:36;11.10;;;4.82;;
76459;SDS011;65299;46.084;18.762;2023-02-28T10:29:37;17.37;;;7.40;;
76459;SDS011;65299;46.084;18.762;2023-02-28T10:32:40;19.13;;;7.88;;
76459;SDS011;65299;46.084;18.762;2023-02-28T10:35:47;11.00;;;4.85;;
76459;SDS011;65299;46.084;18.762;2023-02-28T10:38:48;41.15;;;18.25;;
76459;SDS011;65299;46.084;18.762;2023-02-28T10:41:50;21.13;;;10.03;;
76459;SDS011;65299;46.084;18.762;2023-02-28T10:45:04;13.52;;;6.05;;
76459;SDS011;65299;46.084;18.762;2023-02-28T10:51:14;17.48;;;7.78;;
76459;SDS011;65299;46.084;18.762;2023-02-28T10:54:20;15.65;;;7.10;;
76459;SDS011;65299;46.084;18.762;2023-02-28T10:57:24;10.70;;;5.30;;
76459;SDS011;65299;46.084;18.762;2023-02-28T11:00:25;13.03;;;6.47;;
76459;SDS011;65299;46.084;18.762;2023-02-28T11:03:34;11.73;;;5.35;;
76459;SDS011;65299;46.084;18.762;2023-02-28T11:06:35;14.88;;;7.70;;
76459;SDS011;65299;46.084;18.762;2023-02-28T11:09:38;17.60;;;7.60;;
76459;SDS011;65299;46.084;18.762;2023-02-28T11:12:40;11.73;;;5.63;;
76459;SDS011;65299;46.084;18.762;2023-02-28T11:15:42;11.83;;;6.03;;
76459;SDS011;65299;46.084;18.762;2023-02-28T11:18:53;14.85;;;5.68;;
76459;SDS011;65299;46.084;18.762;2023-02-28T11:21:56;9.75;;;5.13;;
76459;SDS011;65299;46.084;18.762;2023-02-28T11:25:02;12.85;;;5.75;;
76459;SDS011;65299;46.084;18.762;2023-02-28T11:28:26;11.95;;;6.30;;
76459;SDS011;65299;46.084;18.762;2023-02-28T11:31:31;17.50;;;9.33;;
76459;SDS011;65299;46.084;18.762;2023-02-28T11:34:32;12.65;;;6.43;;
76459;SDS011;65299;46.084;18.762;2023-02-28T11:37:32;10.57;;;5.57;;
76459;SDS011;65299;46.084;18.762;2023-02-28T11:40:43;16.92;;;8.20;;
76459;SDS011;65299;46.084;18.762;2023-02-28T11:46:52;14.45;;;7.10;;
76459;SDS011;65299;46.084;18.762;2023-02-28T11:53:42;11.40;;;6.05;;
76459;SDS011;65299;46.084;18.762;2023-02-28T11:57:16;13.07;;;5.70;;
76459;SDS011;65299;46.084;18.762;2023-02-28T12:04:21;12.52;;;6.18;;
76459;SDS011;65299;46.084;18.762;2023-02-28T12:10:57;14.60;;;7.20;;
76459;SDS011;65299;46.084;18.762;2023-02-28T12:21:13;20.42;;;10.82;;
76459;SDS011;65299;46.084;18.762;2023-02-28T12:27:57;10.18;;;5.35;;
76459;SDS011;65299;46.084;18.762;2023-02-28T12:31:00;13.35;;;6.10;;
76459;SDS011;65299;46.084;18.762;2023-02-28T12:34:07;10.90;;;5.75;;
76459;SDS011;65299;46.084;18.762;2023-02-28T12:37:17;16.90;;;7.78;;
76459;SDS011;65299;46.084;18.762;2023-02-28T12:40:23;14.40;;;7.20;;
76459;SDS011;65299;46.084;18.762;2023-02-28T12:43:33;18.08;;;7.30;;
76459;SDS011;65299;46.084;18.762;2023-02-28T12:46:57;11.55;;;4.55;;
76459;SDS011;65299;46.084;18.762;2023-02-28T12:50:05;15.13;;;7.75;;
76459;SDS011;65299;46.084;18.762;2023-02-28T12:53:26;15.57;;;7.15;;
76459;SDS011;65299;46.084;18.762;2023-02-28T12:59:55;11.40;;;6.30;;
76459;SDS011;65299;46.084;18.762;2023-02-28T13:03:04;11.38;;;5.68;;
76459;SDS011;65299;46.084;18.762;2023-02-28T13:06:20;12.20;;;6.30;;
76459;SDS011;65299;46.084;18.762;2023-02-28T13:09:32;12.13;;;5.93;;
76459;SDS011;65299;46.084;18.762;2023-02-28T13:12:33;21.87;;;10.13;;
76459;SDS011;65299;46.084;18.762;2023-02-28T13:15:34;20.50;;;9.70;;
76459;SDS011;65299;46.084;18.762;2023-02-28T13:18:43;15.45;;;7.90;;
76459;SDS011;65299;46.084;18.762;2023-02-28T13:21:45;11.27;;;6.20;;
76459;SDS011;65299;46.084;18.762;2023-02-28T13:24:51;18.75;;;7.90;;
76459;SDS011;65299;46.084;18.762;2023-02-28T13:27:53;14.43;;;6.60;;
76459;SDS011;65299;46.084;18.762;2023-02-28T13:34:06;18.85;;;9.02;;
76459;SDS011;65299;46.084;18.762;2023-02-28T13:40:27;16.20;;;8.93;;
76459;SDS011;65299;46.084;18.762;2023-02-28T13:43:58;18.73;;;8.88;;
76459;SDS011;65299;46.084;18.762;2023-02-28T13:50:35;13.75;;;7.72;;
76459;SDS011;65299;46.084;18.762;2023-02-28T13:53:50;16.87;;;8.03;;
76459;SDS011;65299;46.084;18.762;2023-02-28T14:06:49;14.40;;;7.15;;
76459;SDS011;65299;46.084;18.762;2023-02-28T14:09:57;14.63;;;7.00;;
76459;SDS011;65299;46.084;18.762;2023-02-28T14:16:34;18.42;;;8.73;;
76459;SDS011;65299;46.084;18.762;2023-02-28T14:19:39;11.88;;;6.78;;
76459;SDS011;65299;46.084;18.762;2023-02-28T14:22:51;18.08;;;9.82;;
76459;SDS011;65299;46.084;18.762;2023-02-28T14:39:26;18.40;;;9.40;;
76459;SDS011;65299;46.084;18.762;2023-02-28T14:42:34;15.57;;;7.77;;
76459;SDS011;65299;46.084;18.762;2023-02-28T14:45:37;13.35;;;7.45;;
76459;SDS011;65299;46.084;18.762;2023-02-28T14:48:38;17.63;;;9.07;;
76459;SDS011;65299;46.084;18.762;2023-02-28T14:51:38;21.43;;;9.80;;
76459;SDS011;65299;46.084;18.762;2023-02-28T14:54:39;17.40;;;9.27;;
76459;SDS011;65299;46.084;18.762;2023-02-28T14:57:41;16.30;;;7.75;;
76459;SDS011;65299;46.084;18.762;2023-02-28T15:00:52;14.98;;;7.68;;
76459;SDS011;65299;46.084;18.762;2023-02-28T15:04:16;13.88;;;6.93;;
76459;SDS011;65299;46.084;18.762;2023-02-28T15:07:27;19.27;;;7.90;;
76459;SDS011;65299;46.084;18.762;2023-02-28T15:10:31;14.25;;;7.43;;
76459;SDS011;65299;46.084;18.762;2023-02-28T15:13:48;15.45;;;7.72;;
76459;SDS011;65299;46.084;18.762;2023-02-28T15:16:57;22.60;;;10.45;;
76459;SDS011;65299;46.084;18.762;2023-02-28T15:20:02;34.28;;;14.73;;
76459;SDS011;65299;46.084;18.762;2023-02-28T15:23:03;55.83;;;17.93;;
76459;SDS011;65299;46.084;18.762;2023-02-28T15:26:03;103.35;;;27.50;;
76459;SDS011;65299;46.084;18.762;2023-02-28T15:29:06;29.42;;;11.38;;
76459;SDS011;65299;46.084;18.762;2023-02-28T15:32:16;34.40;;;13.97;;
76459;SDS011;65299;46.084;18.762;2023-02-28T15:38:25;22.38;;;10.93;;
76459;SDS011;65299;46.084;18.762;2023-02-28T15:41:28;19.85;;;10.32;;
76459;SDS011;65299;46.084;18.762;2023-02-28T15:44:32;17.73;;;9.07;;
76459;SDS011;65299;46.084;18.762;2023-02-28T15:47:33;31.43;;;12.43;;
76459;SDS011;65299;46.084;18.762;2023-02-28T15:50:34;36.40;;;15.25;;
76459;SDS011;65299;46.084;18.762;2023-02-28T15:53:47;38.43;;;15.73;;
76459;SDS011;65299;46.084;18.762;2023-02-28T15:56:51;27.98;;;12.85;;
76459;SDS011;65299;46.084;18.762;2023-02-28T15:59:54;14.23;;;7.00;;
76459;SDS011;65299;46.084;18.762;2023-02-28T16:02:57;14.73;;;8.13;;
76459;SDS011;65299;46.084;18.762;2023-02-28T16:09:16;15.40;;;7.65;;
76459;SDS011;65299;46.084;18.762;2023-02-28T16:12:17;16.43;;;8.77;;
76459;SDS011;65299;46.084;18.762;2023-02-28T16:15:21;17.27;;;8.27;;
76459;SDS011;65299;46.084;18.762;2023-02-28T16:18:27;15.23;;;8.07;;
76459;SDS011;65299;46.084;18.762;2023-02-28T16:21:27;14.87;;;7.60;;
76459;SDS011;65299;46.084;18.762;2023-02-28T16:24:28;16.57;;;7.73;;
76459;SDS011;65299;46.084;18.762;2023-02-28T16:27:30;18.27;;;8.80;;
76459;SDS011;65299;46.084;18.762;2023-02-28T16:30:33;17.20;;;7.93;;
76459;SDS011;65299;46.084;18.762;2023-02-28T16:33:33;22.97;;;10.90;;
76459;SDS011;65299;46.084;18.762;2023-02-28T16:36:34;32.43;;;17.03;;
76459;SDS011;65299;46.084;18.762;2023-02-28T16:39:34;18.70;;;10.07;;
76459;SDS011;65299;46.084;18.762;2023-02-28T16:42:34;15.45;;;8.27;;
76459;SDS011;65299;46.084;18.762;2023-02-28T16:45:37;16.70;;;7.72;;
76459;SDS011;65299;46.084;18.762;2023-02-28T16:48:38;17.57;;;8.07;;
76459;SDS011;65299;46.084;18.762;2023-02-28T16:51:40;19.85;;;8.30;;
76459;SDS011;65299;46.084;18.762;2023-02-28T16:54:40;18.53;;;8.53;;
76459;SDS011;65299;46.084;18.762;2023-02-28T16:57:41;21.13;;;10.00;;
76459;SDS011;65299;46.084;18.762;2023-02-28T17:00:43;21.23;;;9.77;;
76459;SDS011;65299;46.084;18.762;2023-02-28T17:03:44;20.85;;;9.43;;
76459;SDS011;65299;46.084;18.762;2023-02-28T17:06:44;18.67;;;9.33;;
76459;SDS011;65299;46.084;18.762;2023-02-28T17:09:45;25.67;;;11.25;;
76459;SDS011;65299;46.084;18.762;2023-02-28T17:12:45;30.87;;;12.37;;
76459;SDS011;65299;46.084;18.762;2023-02-28T17:15:46;28.60;;;11.60;;
76459;SDS011;65299;46.084;18.762;2023-02-28T17:18:47;29.77;;;12.80;;
76459;SDS011;65299;46.084;18.762;2023-02-28T17:21:48;24.83;;;9.47;;
76459;SDS011;65299;46.084;18.762;2023-02-28T17:24:48;20.67;;;9.43;;
76459;SDS011;65299;46.084;18.762;2023-02-28T17:27:49;23.15;;;10.52;;
76459;SDS011;65299;46.084;18.762;2023-02-28T17:30:51;21.70;;;10.80;;
76459;SDS011;65299;46.084;18.762;2023-02-28T17:33:51;19.43;;;8.63;;
76459;SDS011;65299;46.084;18.762;2023-02-28T17:36:54;20.05;;;8.30;;
76459;SDS011;65299;46.084;18.762;2023-02-28T17:39:54;17.20;;;7.50;;
76459;SDS011;65299;46.084;18.762;2023-02-28T17:42:55;22.95;;;7.80;;
76459;SDS011;65299;46.084;18.762;2023-02-28T17:45:56;18.30;;;9.07;;
76459;SDS011;65299;46.084;18.762;2023-02-28T17:48:58;16.42;;;7.50;;
76459;SDS011;65299;46.084;18.762;2023-02-28T17:51:58;21.70;;;8.13;;
76459;SDS011;65299;46.084;18.762;2023-02-28T17:54:58;19.58;;;7.80;;
76459;SDS011;65299;46.084;18.762;2023-02-28T17:57:59;19.57;;;9.03;;
76459;SDS011;65299;46.084;18.762;2023-02-28T18:00:59;15.57;;;8.13;;
76459;SDS011;65299;46.084;18.762;2023-02-28T18:04:00;20.23;;;8.50;;
76459;SDS011;65299;46.084;18.762;2023-02-28T18:07:00;19.95;;;9.63;;
76459;SDS011;65299;46.084;18.762;2023-02-28T18:10:01;14.80;;;7.63;;
76459;SDS011;65299;46.084;18.762;2023-02-28T18:13:03;17.23;;;8.82;;
76459;SDS011;65299;46.084;18.762;2023-02-28T18:16:03;17.83;;;8.27;;
76459;SDS011;65299;46.084;18.762;2023-02-28T18:19:04;26.70;;;9.30;;
76459;SDS011;65299;46.084;18.762;2023-02-28T18:22:06;21.08;;;9.65;;
76459;SDS011;65299;46.084;18.762;2023-02-28T18:25:08;16.80;;;8.23;;
76459;SDS011;65299;46.084;18.762;2023-02-28T18:28:13;19.60;;;8.60;;
76459;SDS011;65299;46.084;18.762;2023-02-28T18:31:15;17.80;;;8.03;;
76459;SDS011;65299;46.084;18.762;2023-02-28T18:34:17;20.00;;;8.95;;
76459;SDS011;65299;46.084;18.762;2023-02-28T18:37:18;16.48;;;7.82;;
76459;SDS011;65299;46.084;18.762;2023-02-28T18:40:19;20.05;;;9.88;;
76459;SDS011;65299;46.084;18.762;2023-02-28T18:43:20;23.00;;;10.37;;
76459;SDS011;65299;46.084;18.762;2023-02-28T18:46:20;27.07;;;10.57;;
76459;SDS011;65299;46.084;18.762;2023-02-28T18:49:21;30.30;;;11.50;;
76459;SDS011;65299;46.084;18.762;2023-02-28T18:52:21;22.80;;;9.63;;
76459;SDS011;65299;46.084;18.762;2023-02-28T18:55:22;20.60;;;9.40;;
76459;SDS011;65299;46.084;18.762;2023-02-28T18:58:23;23.27;;;9.55;;
76459;SDS011;65299;46.084;18.762;2023-02-28T19:01:24;20.90;;;9.60;;
76459;SDS011;65299;46.084;18.762;2023-02-28T19:04:28;21.30;;;9.13;;
76459;SDS011;65299;46.084;18.762;2023-02-28T19:07:29;25.83;;;10.00;;
76459;SDS011;65299;46.084;18.762;2023-02-28T19:10:29;25.30;;;10.23;;
76459;SDS011;65299;46.084;18.762;2023-02-28T19:13:30;25.38;;;10.73;;
76459;SDS011;65299;46.084;18.762;2023-02-28T19:16:31;23.93;;;9.90;;
76459;SDS011;65299;46.084;18.762;2023-02-28T19:19:31;23.92;;;9.52;;
76459;SDS011;65299;46.084;18.762;2023-02-28T19:22:31;23.83;;;10.83;;
76459;SDS011;65299;46.084;18.762;2023-02-28T19:25:32;26.93;;;10.77;;
76459;SDS011;65299;46.084;18.762;2023-02-28T19:28:32;23.40;;;9.87;;
76459;SDS011;65299;46.084;18.762;2023-02-28T19:31:33;20.90;;;9.52;;